Time;durP1;ratioP1;P1;durP2;ratioP2;P2;SDS_P1;SDS_P2;PMS_P1;PMS_P2;Temp;Humidity;BMP_temperature;BMP_pressure;BME280_temperature;BME280_humidity;BME280_pressure;Samples;Min_cycle;Max_cycle;Signal;HPM_P1;HPM_P2
2021/03/30 00:02:13;;;;;;;12.77;11.45;;;;;;;30.07;53.85;100729.75;5051733;27;70427;-31
2021/03/30 00:04:43;;;;;;;12.02;11.00;;;;;;;30.11;54.03;100736.38;5053179;27;65231;-32
2021/03/30 00:07:13;;;;;;;18.45;11.30;;;;;;;30.14;54.81;100730.50;5057849;27;70231;-32
2021/03/30 00:09:43;;;;;;;11.80;10.60;;;;;;;30.23;54.61;100733.84;5054049;27;66244;-32
2021/03/30 00:12:14;;;;;;;29.08;12.20;;;;;;;30.24;55.50;100736.31;5055746;28;69726;-32
2021/03/30 00:14:43;;;;;;;26.30;11.75;;;;;;;30.27;56.45;100730.47;5052598;28;66019;-32
2021/03/30 00:17:14;;;;;;;14.80;11.48;;;;;;;30.34;57.09;100738.53;5077604;27;70033;-33
2021/03/30 00:19:43;;;;;;;14.35;10.85;;;;;;;30.51;55.56;100746.94;5061471;28;65873;-32
2021/03/30 00:22:12;;;;;;;16.10;11.18;;;;;;;30.64;55.09;100752.22;5060077;27;70472;-30
2021/03/30 00:24:45;;;;;;;16.42;10.90;;;;;;;30.65;55.38;100743.06;5065624;27;65461;-30
2021/03/30 00:27:14;;;;;;;14.90;10.55;;;;;;;30.71;55.07;100747.59;5056127;27;69568;-31
2021/03/30 00:29:50;;;;;;;14.65;11.23;;;;;;;30.79;55.42;100742.94;5052577;27;65614;-29
2021/03/30 00:32:19;;;;;;;13.50;10.35;;;;;;;30.75;55.74;100749.84;5065151;27;69571;-31
2021/03/30 00:34:49;;;;;;;12.68;9.70;;;;;;;30.73;55.90;100753.63;5067195;28;66133;-31
2021/03/30 00:37:18;;;;;;;11.73;9.48;;;;;;;30.72;55.66;100754.66;5056467;27;70327;-30
2021/03/30 00:39:48;;;;;;;11.75;9.82;;;;;;;30.74;55.15;100751.72;5067561;27;65305;-31
2021/03/30 00:42:27;;;;;;;13.18;9.80;;;;;;;30.77;55.61;100761.28;5065763;28;69953;-30
2021/03/30 00:44:58;;;;;;;10.30;9.35;;;;;;;30.70;54.91;100751.34;5063288;27;65289;-31
2021/03/30 00:47:31;;;;;;;13.50;11.37;;;;;;;30.77;55.44;100772.94;5075692;27;69624;-31
2021/03/30 00:50:01;;;;;;;12.05;10.77;;;;;;;30.78;55.23;100780.00;5071147;27;66476;-31
2021/03/30 00:52:31;;;;;;;14.93;11.52;;;;;;;30.78;55.30;100779.19;5072648;27;69848;-31
2021/03/30 00:55:27;;;;;;;19.70;11.23;;;;;;;30.79;54.96;100781.69;5054214;27;65234;-30
2021/03/30 00:57:57;;;;;;;11.27;10.20;;;;;;;30.79;55.21;100783.56;5057444;28;69989;-30
2021/03/30 01:00:29;;;;;;;12.32;10.40;;;;;;;30.80;55.35;100790.66;5075385;27;64667;-31
2021/03/30 01:02:58;;;;;;;10.57;9.68;;;;;;;30.84;54.79;100794.56;5060160;27;70411;-31
2021/03/30 01:05:28;;;;;;;11.18;10.20;;;;;;;30.88;54.97;100798.50;5066590;28;65326;-31
2021/03/30 01:08:09;;;;;;;11.93;10.68;;;;;;;30.75;54.88;100785.88;5068338;27;70006;-31
2021/03/30 01:11:16;;;;;;;11.02;9.93;;;;;;;30.86;54.71;100795.19;5056148;27;66192;-30
2021/03/30 01:14:04;;;;;;;13.50;10.10;;;;;;;30.95;54.30;100796.53;5010349;28;70074;-30
2021/03/30 01:16:40;;;;;;;11.70;10.40;;;;;;;30.97;54.60;100805.28;5073377;27;66202;-31
2021/03/30 01:19:23;;;;;;;12.68;10.35;;;;;;;30.97;54.39;100805.28;5057839;27;70628;-31
2021/03/30 01:22:33;;;;;;;12.65;9.70;;;;;;;30.99;54.28;100803.19;5058323;27;66907;-32
2021/03/30 01:25:04;;;;;;;10.38;9.57;;;;;;;31.01;53.47;100790.25;5067842;28;70135;-32
2021/03/30 01:27:48;;;;;;;12.77;9.63;;;;;;;31.08;53.80;100801.84;5056788;28;66071;-29
2021/03/30 01:30:21;;;;;;;10.23;9.25;;;;;;;31.11;53.83;100801.41;5068634;28;69629;-30
2021/03/30 01:33:13;;;;;;;9.48;8.68;;;;;;;31.07;54.01;100800.19;5057281;28;66284;-31
2021/03/30 01:35:43;;;;;;;10.48;9.48;;;;;;;31.17;53.86;100810.50;5068220;28;70008;-31
2021/03/30 01:38:15;;;;;;;10.48;9.48;;;;;;;31.17;54.22;100824.91;5064619;27;67305;-31
2021/03/30 01:40:45;;;;;;;12.50;8.38;;;;;;;31.14;53.48;100819.91;5069121;27;70572;-31
2021/03/30 01:43:17;;;;;;;9.65;8.82;;;;;;;31.21;53.92;100832.59;5063387;28;65988;-31
2021/03/30 01:45:57;;;;;;;10.35;8.93;;;;;;;31.11;53.67;100806.81;5063329;28;70333;-31
2021/03/30 01:48:28;;;;;;;9.55;8.70;;;;;;;31.27;53.65;100826.25;5073055;27;65802;-31
2021/03/30 01:50:59;;;;;;;8.73;7.93;;;;;;;31.25;53.29;100826.47;5067756;28;69267;-30
2021/03/30 01:53:30;;;;;;;9.23;8.43;;;;;;;31.24;53.40;100829.44;5056937;28;66356;-30
2021/03/30 01:56:01;;;;;;;10.13;8.60;;;;;;;31.25;53.10;100822.94;5059838;28;69808;-31
2021/03/30 01:58:32;;;;;;;12.98;8.75;;;;;;;31.27;53.31;100820.84;5071132;28;65438;-31
2021/03/30 02:01:02;;;;;;;8.32;7.68;;;;;;;31.33;53.01;100825.34;5072656;27;69231;-31
2021/03/30 02:03:31;;;;;;;9.25;8.48;;;;;;;31.31;53.19;100827.47;5070030;27;67333;-30
2021/03/30 02:06:05;;;;;;;11.07;8.60;;;;;;;31.34;53.24;100827.00;5058775;27;69805;-32
2021/03/30 02:08:36;;;;;;;9.00;8.23;;;;;;;31.37;52.77;100821.16;5067494;27;65447;-31
2021/03/30 02:11:05;;;;;;;7.88;7.35;;;;;;;31.39;52.61;100829.91;5072078;28;69230;-31
2021/03/30 02:13:40;;;;;;;8.18;7.63;;;;;;;31.39;52.91;100828.03;5070511;27;65971;-30
2021/03/30 02:16:19;;;;;;;9.20;8.40;;;;;;;31.40;52.67;100834.28;5070275;27;69301;-31
2021/03/30 02:19:19;;;;;;;8.70;7.90;;;;;;;31.41;53.21;100827.81;5068989;27;66107;-32
2021/03/30 02:22:00;;;;;;;8.88;8.02;;;;;;;31.42;52.71;100826.75;5064547;27;70527;-30
2021/03/30 02:24:31;;;;;;;11.05;7.90;;;;;;;31.45;52.98;100823.56;5071266;27;65769;-30
2021/03/30 02:27:06;;;;;;;8.40;7.80;;;;;;;31.42;52.78;100818.63;5063424;27;70157;-31
2021/03/30 02:29:38;;;;;;;11.02;8.20;;;;;;;31.39;52.89;100814.47;5057194;27;66833;-31
2021/03/30 02:32:09;;;;;;;;;;;;;;;31.30;53.13;100814.97;5057504;27;69708;-30
2021/03/30 02:34:40;;;;;;;13.52;7.47;;;;;;;31.49;52.32;100830.22;5068541;27;65178;-30
2021/03/30 02:37:10;;;;;;;8.05;7.55;;;;;;;31.54;52.33;100835.81;5054248;28;69220;-31
2021/03/30 02:39:41;;;;;;;11.82;7.82;;;;;;;31.55;52.43;100845.56;5061130;27;65479;-31
2021/03/30 02:42:11;;;;;;;8.70;8.00;;;;;;;31.55;52.73;100839.34;5070170;27;69776;-30
2021/03/30 02:44:42;;;;;;;17.05;8.65;;;;;;;31.58;52.26;100839.69;5068280;27;66106;-32
2021/03/30 02:47:15;;;;;;;11.45;9.00;;;;;;;31.58;52.49;100839.69;5068629;27;70064;-31
2021/03/30 02:49:48;;;;;;;8.73;7.78;;;;;;;31.58;52.57;100834.28;5062588;27;66004;-31
2021/03/30 02:52:19;;;;;;;8.90;8.20;;;;;;;31.60;52.50;100843.03;5060248;27;71699;-32
2021/03/30 02:54:49;;;;;;;9.13;8.32;;;;;;;31.65;52.57;100838.78;5083118;27;65152;-30
2021/03/30 02:57:22;;;;;;;10.43;9.10;;;;;;;31.64;51.99;100831.72;5065799;28;70387;-30
2021/03/30 02:59:54;;;;;;;11.00;8.63;;;;;;;31.68;52.49;100832.91;5058106;27;65355;-30
2021/03/30 03:02:25;;;;;;;12.00;9.00;;;;;;;31.76;52.19;100841.59;5057480;28;70001;-31
2021/03/30 03:04:58;;;;;;;9.17;8.47;;;;;;;31.81;51.87;100827.34;5056131;27;66652;-30
2021/03/30 03:07:31;;;;;;;9.82;8.93;;;;;;;31.83;51.56;100826.06;5057305;27;69249;-31
2021/03/30 03:10:04;;;;;;;12.57;9.35;;;;;;;31.89;51.82;100832.44;5067988;27;65907;-30
2021/03/30 03:12:43;;;;;;;10.70;9.65;;;;;;;31.91;51.52;100827.66;5068113;27;43539;-31
2021/03/30 03:15:14;;;;;;;10.10;9.20;;;;;;;31.92;51.64;100823.88;5068720;27;66026;-31
2021/03/30 03:17:46;;;;;;;9.68;8.88;;;;;;;31.97;51.79;100829.44;5071631;27;70305;-31
2021/03/30 03:20:17;;;;;;;9.95;8.93;;;;;;;31.97;51.72;100826.72;5070257;27;66670;-31
2021/03/30 03:22:49;;;;;;;10.32;9.38;;;;;;;32.01;51.80;100824.38;5062374;27;70194;-30
2021/03/30 03:25:19;;;;;;;9.95;9.15;;;;;;;32.03;51.41;100825.81;5067009;28;66274;-32
2021/03/30 03:27:49;;;;;;;10.13;9.13;;;;;;;32.06;51.73;100824.53;5065658;27;70084;-31
2021/03/30 03:30:19;;;;;;;11.35;10.30;;;;;;;32.09;51.30;100823.25;5054503;27;66320;-30
2021/03/30 03:32:51;;;;;;;10.27;9.43;;;;;;;32.12;51.60;100822.78;5057580;28;69958;-31
2021/03/30 03:35:21;;;;;;;11.88;10.02;;;;;;;32.16;51.35;100824.00;5069875;27;65412;-32
2021/03/30 03:37:51;;;;;;;10.68;9.77;;;;;;;32.19;51.51;100820.81;5061446;28;68960;-30
2021/03/30 03:40:22;;;;;;;16.25;9.88;;;;;;;32.22;50.93;100823.88;5072116;27;66538;-31
2021/03/30 03:42:52;;;;;;;10.88;9.27;;;;;;;32.25;51.48;100822.59;5063370;27;69763;-31
2021/03/30 03:45:21;;;;;;;9.93;9.10;;;;;;;32.29;51.46;100823.81;5071184;27;66050;-32
2021/03/30 03:47:52;;;;;;;17.27;10.38;;;;;;;32.28;51.37;100827.56;5058519;27;70649;-31
2021/03/30 03:50:23;;;;;;;10.05;9.18;;;;;;;32.31;50.71;100816.25;5073609;27;66002;-30
2021/03/30 03:52:55;;;;;;;10.07;9.07;;;;;;;32.27;51.02;100806.91;5058622;27;71628;-34
2021/03/30 03:55:25;;;;;;;10.13;9.32;;;;;;;32.38;51.05;100814.25;5042575;28;66304;-31
2021/03/30 03:57:59;;;;;;;10.13;9.10;;;;;;;32.32;50.53;100798.91;5066525;28;69318;-31
2021/03/30 04:00:29;;;;;;;11.80;9.77;;;;;;;32.43;51.24;100803.53;5056132;28;65784;-30
2021/03/30 04:03:10;;;;;;;10.30;9.25;;;;;;;32.44;50.60;100809.78;5067165;27;69850;-31
2021/03/30 04:05:57;;;;;;;16.38;10.02;;;;;;;32.37;50.97;100780.00;5067611;27;66145;-31
2021/03/30 04:08:34;;;;;;;9.45;8.85;;;;;;;32.52;50.62;100795.09;5066705;28;70153;-31
2021/03/30 04:11:04;;;;;;;12.70;8.32;;;;;;;32.56;50.65;100788.94;5061820;27;66386;-36
2021/03/30 04:13:37;;;;;;;10.88;9.70;;;;;;;32.52;50.49;100778.78;5070901;27;69563;-31
2021/03/30 04:16:07;;;;;;;10.43;9.50;;;;;;;32.62;50.55;100787.16;5062541;27;66307;-31
2021/03/30 04:18:40;;;;;;;10.25;9.35;;;;;;;32.53;50.37;100764.97;5066355;27;69503;-30
2021/03/30 04:21:17;;;;;;;10.45;9.18;;;;;;;32.64;50.61;100777.72;5060771;28;65386;-30
2021/03/30 04:23:51;;;;;;;11.35;9.27;;;;;;;32.69;50.15;100768.88;5068656;27;70608;-31
2021/03/30 04:26:21;;;;;;;10.07;9.20;;;;;;;32.70;50.20;100760.50;5065043;27;66668;-30
2021/03/30 04:28:51;;;;;;;9.05;8.43;;;;;;;32.73;50.15;100753.75;5049207;28;69497;-30
2021/03/30 04:31:21;;;;;;;10.60;9.57;;;;;;;32.71;49.89;100740.44;5063861;28;67160;-31
2021/03/30 04:33:51;;;;;;;13.07;9.20;;;;;;;32.64;50.24;100737.00;5070178;27;69337;-31
2021/03/30 04:36:21;;;;;;;10.77;9.57;;;;;;;32.70;50.05;100735.22;5069811;27;66378;-31
2021/03/30 04:38:53;;;;;;;10.15;9.35;;;;;;;32.73;50.40;100726.59;5069156;27;69837;-31
2021/03/30 04:41:23;;;;;;;10.32;9.32;;;;;;;32.75;50.40;100724.47;5062676;27;66072;-31
2021/03/30 04:43:52;;;;;;;10.43;9.55;;;;;;;32.76;50.07;100720.69;5073150;27;69769;-31
2021/03/30 04:46:22;;;;;;;10.70;9.73;;;;;;;32.77;49.84;100705.25;5077486;27;65487;-31
2021/03/30 04:48:51;;;;;;;11.48;9.90;;;;;;;32.77;49.94;100706.06;5067667;27;70629;-31
2021/03/30 04:51:20;;;;;;;10.60;9.75;;;;;;;32.81;50.05;100709.94;5069212;27;66200;-31
2021/03/30 04:53:50;;;;;;;10.10;9.30;;;;;;;32.83;49.71;100698.84;5067476;27;69970;-32
2021/03/30 04:56:19;;;;;;;10.68;9.63;;;;;;;32.84;50.08;100695.88;5062795;28;65854;-31
2021/03/30 04:58:49;;;;;;;10.80;9.70;;;;;;;32.80;49.91;100683.84;5072865;27;68812;-32
2021/03/30 05:01:21;;;;;;;9.48;8.57;;;;;;;32.79;50.10;100679.50;5066314;27;65952;-31
2021/03/30 05:03:53;;;;;;;9.82;9.02;;;;;;;32.87;49.70;100684.53;5072527;28;70476;-29
2021/03/30 05:06:23;;;;;;;11.65;9.85;;;;;;;32.91;50.22;100669.44;5068506;27;65903;-30
2021/03/30 05:08:53;;;;;;;11.32;10.27;;;;;;;32.94;49.95;100668.94;5086987;27;70424;-35
2021/03/30 05:11:22;;;;;;;10.73;9.77;;;;;;;33.00;49.58;100671.81;5073501;27;65926;-29
2021/03/30 05:13:52;;;;;;;15.10;9.95;;;;;;;33.01;49.66;100657.13;5074169;27;70436;-31
2021/03/30 05:16:21;;;;;;;10.50;9.60;;;;;;;33.04;49.75;100643.06;5067362;27;65902;-32
2021/03/30 05:18:52;;;;;;;10.70;9.80;;;;;;;33.03;49.81;100649.59;5072250;27;71384;-30
2021/03/30 05:21:23;;;;;;;11.05;9.88;;;;;;;33.07;49.49;100634.44;5075276;27;66138;-31
2021/03/30 05:24:07;;;;;;;11.10;10.10;;;;;;;33.12;49.41;100627.19;5075230;27;69891;-30
2021/03/30 05:26:39;;;;;;;11.65;10.50;;;;;;;33.12;49.41;100615.50;5075618;27;65767;-33
2021/03/30 05:29:10;;;;;;;12.10;10.77;;;;;;;33.15;49.43;100605.00;5056687;28;68010;-30
2021/03/30 05:31:40;;;;;;;11.48;10.38;;;;;;;33.17;49.86;100607.47;5055160;28;66296;-30
2021/03/30 05:34:11;;;;;;;11.43;10.45;;;;;;;33.22;49.69;100604.03;5068682;27;70420;-31
2021/03/30 05:36:42;;;;;;;18.83;10.35;;;;;;;33.24;49.50;100602.72;5069481;28;66550;-31
2021/03/30 05:39:12;;;;;;;12.20;11.10;;;;;;;33.19;49.43;100580.88;5075574;28;69726;-30
2021/03/30 05:41:41;;;;;;;12.27;11.35;;;;;;;33.28;49.49;100579.41;5072652;28;65915;-29
2021/03/30 05:44:14;;;;;;;13.57;12.32;;;;;;;33.30;49.12;100571.84;5076362;27;69929;-31
2021/03/30 05:46:46;;;;;;;12.65;11.00;;;;;;;33.30;49.22;100568.28;5077617;27;65961;-31
2021/03/30 05:49:16;;;;;;;12.95;11.65;;;;;;;33.35;49.32;100571.94;5074407;27;70333;-30
2021/03/30 05:51:47;;;;;;;12.55;11.45;;;;;;;33.33;49.62;100557.75;5072350;27;66846;-29
2021/03/30 05:54:20;;;;;;;13.65;12.27;;;;;;;33.28;48.92;100538.63;5068682;27;70004;-31
2021/03/30 05:57:08;;;;;;;13.18;12.18;;;;;;;33.31;49.05;100532.69;5073055;27;65082;-31
2021/03/30 05:59:41;;;;;;;13.05;11.95;;;;;;;33.41;49.21;100542.94;5075139;27;69368;-30
2021/03/30 06:02:14;;;;;;;;;;;;;;;33.35;49.34;100544.75;5076144;27;65966;-32
2021/03/30 06:04:44;;;;;;;12.65;11.45;;;;;;;33.46;49.08;100531.31;5070268;27;70250;-30
2021/03/30 06:07:14;;;;;;;12.73;11.73;;;;;;;33.48;49.06;100531.91;5073096;27;66428;-31
2021/03/30 06:09:47;;;;;;;12.77;11.63;;;;;;;33.48;49.02;100526.44;5073313;27;68912;-31
2021/03/30 06:12:17;;;;;;;11.88;10.98;;;;;;;33.49;49.00;100522.66;5073656;27;65178;-31
2021/03/30 06:14:48;;;;;;;13.50;12.20;;;;;;;33.48;49.02;100504.69;5074312;27;68936;-30
2021/03/30 06:17:17;;;;;;;12.32;11.23;;;;;;;33.54;49.00;100503.75;5075804;27;65997;-32
2021/03/30 06:19:55;;;;;;;12.85;11.80;;;;;;;33.55;48.73;100495.34;5074404;27;70734;-30
2021/03/30 06:22:27;;;;;;;13.73;12.18;;;;;;;33.58;48.58;100489.41;5073854;27;66319;-30
2021/03/30 06:24:56;;;;;;;12.85;11.63;;;;;;;33.63;48.73;100488.66;5072545;27;70017;-30
2021/03/30 06:27:29;;;;;;;14.27;12.43;;;;;;;33.63;49.02;100475.06;5074480;27;66358;-30
2021/03/30 06:30:00;;;;;;;12.57;11.40;;;;;;;33.65;48.49;100470.19;5076470;27;69594;-31
2021/03/30 06:32:29;;;;;;;13.23;11.90;;;;;;;33.62;48.46;100461.72;5069061;27;65879;-30
2021/03/30 06:35:13;;;;;;;12.77;11.85;;;;;;;33.64;48.67;100460.38;5073207;27;69845;-35
2021/03/30 06:37:42;;;;;;;12.85;11.75;;;;;;;33.70;48.78;100461.28;5062085;28;65507;-30
2021/03/30 06:40:35;;;;;;;12.27;11.18;;;;;;;33.61;48.79;100439.13;5076022;27;69102;-31
2021/03/30 06:46:22;;;;;;;12.07;11.07;;;;;;;33.81;48.72;100444.84;5047839;27;69180;-31
2021/03/30 06:48:51;;;;;;;13.00;11.80;;;;;;;33.84;48.44;100443.53;5071107;28;65527;-31
2021/03/30 06:51:22;;;;;;;12.90;11.80;;;;;;;33.85;48.62;100436.19;5073165;27;70076;-31
2021/03/30 06:53:51;;;;;;;11.38;10.65;;;;;;;33.85;48.67;100423.44;5072579;28;66391;-30
2021/03/30 06:56:48;;;;;;;12.63;11.57;;;;;;;33.81;48.43;100428.53;5064676;27;69411;-31
2021/03/30 06:59:22;;;;;;;12.30;11.43;;;;;;;33.86;48.21;100413.38;5074077;27;65706;-31
2021/03/30 07:01:56;;;;;;;18.45;12.55;;;;;;;33.96;47.79;100419.78;5071608;27;70267;-31
2021/03/30 07:04:28;;;;;;;13.63;12.32;;;;;;;34.00;47.98;100414.63;5074493;27;66552;-30
2021/03/30 07:06:59;;;;;;;12.95;11.77;;;;;;;34.07;48.24;100398.94;5074293;27;70108;-30
2021/03/30 07:09:28;;;;;;;12.57;11.52;;;;;;;34.04;48.04;100383.09;5062636;27;65920;-31
2021/03/30 07:12:00;;;;;;;12.93;11.93;;;;;;;34.10;47.75;100390.31;5072646;28;70195;-30
2021/03/30 07:14:31;;;;;;;13.02;11.98;;;;;;;34.12;47.63;100379.97;5073840;27;65223;-30
2021/03/30 07:17:02;;;;;;;12.77;11.75;;;;;;;34.17;47.92;100381.94;5068361;27;70758;-30
2021/03/30 07:19:32;;;;;;;12.77;11.77;;;;;;;34.15;48.16;100376.72;5070588;27;65305;-31
2021/03/30 07:22:06;;;;;;;12.43;11.43;;;;;;;34.10;47.87;100360.38;5076060;27;70396;-30
2021/03/30 07:25:02;;;;;;;12.40;11.32;;;;;;;34.01;47.81;100350.97;5072415;27;65422;-30
2021/03/30 07:28:04;;;;;;;13.38;12.18;;;;;;;34.21;47.74;100361.28;5073953;27;69212;-30
2021/03/30 07:30:37;;;;;;;;;;;;;;;34.18;47.70;100368.06;5072773;27;65834;-31
2021/03/30 07:33:24;;;;;;;12.75;11.70;;;;;;;34.22;47.26;100344.69;5075978;27;70188;-31
2021/03/30 07:35:57;;;;;;;13.50;12.25;;;;;;;34.33;47.23;100350.28;5075627;27;66295;-30
2021/03/30 07:38:33;;;;;;;12.85;11.68;;;;;;;34.36;47.44;100349.75;5065401;27;70479;-30
2021/03/30 07:41:06;;;;;;;15.52;12.30;;;;;;;34.41;47.50;100338.91;5073461;27;65912;-30
2021/03/30 07:43:37;;;;;;;13.63;12.43;;;;;;;34.33;47.44;100321.13;5075775;27;69651;-30
2021/03/30 07:46:10;;;;;;;14.10;12.87;;;;;;;34.37;47.33;100314.09;5069795;28;65304;-30
2021/03/30 07:48:40;;;;;;;13.30;11.68;;;;;;;34.51;47.18;100332.72;5070608;27;70553;-30
2021/03/30 07:51:12;;;;;;;13.60;12.40;;;;;;;34.53;47.18;100325.13;5078964;27;66539;-32
2021/03/30 07:53:54;;;;;;;14.07;12.48;;;;;;;34.55;46.96;100317.50;5076686;27;69264;-30
2021/03/30 07:56:26;;;;;;;13.03;11.90;;;;;;;34.55;47.21;100307.44;5063187;28;66190;-30
2021/03/30 07:58:58;;;;;;;13.52;12.23;;;;;;;34.58;47.09;100306.16;5073345;27;70170;-32
2021/03/30 08:01:31;;;;;;;13.30;12.25;;;;;;;34.56;47.15;100295.50;5076594;27;67137;-31
2021/03/30 08:04:02;;;;;;;13.35;12.10;;;;;;;34.62;46.91;100302.63;5078258;27;70162;-31
2021/03/30 08:06:48;;;;;;;13.30;12.25;;;;;;;34.52;46.91;100280.75;5075746;27;65203;-33
2021/03/30 08:09:19;;;;;;;12.98;11.98;;;;;;;34.62;46.78;100280.84;5077576;27;69146;-30
2021/03/30 08:11:54;;;;;;;16.73;12.97;;;;;;;34.61;46.74;100281.94;5074954;27;66459;-32
2021/03/30 08:14:28;;;;;;;13.38;12.25;;;;;;;34.66;46.85;100287.41;5070119;28;70102;-32
2021/03/30 08:17:18;;;;;;;12.68;11.75;;;;;;;34.57;46.87;100274.53;5074253;27;65791;-38
2021/03/30 08:20:00;;;;;;;12.70;11.68;;;;;;;34.62;47.10;100280.84;5068345;28;70481;-30
2021/03/30 08:23:00;;;;;;;13.40;12.40;;;;;;;34.64;46.89;100284.13;5072134;27;65910;-30
2021/03/30 08:25:36;;;;;;;12.98;11.98;;;;;;;34.68;46.87;100285.22;5066072;27;70005;-31
2021/03/30 08:28:06;;;;;;;13.45;12.32;;;;;;;34.63;46.96;100266.16;5073927;27;66237;-38
2021/03/30 08:30:42;;;;;;;13.68;12.68;;;;;;;34.72;46.68;100280.09;5075627;27;69732;-31
2021/03/30 08:33:11;;;;;;;13.18;11.88;;;;;;;34.72;46.62;100284.75;5074071;27;66152;-31
2021/03/30 08:35:41;;;;;;;13.38;11.98;;;;;;;34.73;46.67;100278.19;5070277;27;71091;-30
2021/03/30 08:38:43;;;;;;;13.60;12.48;;;;;;;34.65;46.74;100269.41;5075532;27;66132;-30
2021/03/30 08:41:32;;;;;;;13.48;11.80;;;;;;;34.77;46.86;100271.13;5066103;27;70163;-31
2021/03/30 08:44:38;;;;;;;14.48;12.32;;;;;;;34.70;46.65;100271.38;5071533;27;65973;-30
2021/03/30 08:47:40;;;;;;;14.13;12.73;;;;;;;34.73;46.46;100265.38;5069514;27;69072;-30
2021/03/30 08:50:34;;;;;;;13.77;12.18;;;;;;;34.79;46.49;100264.34;5074632;27;66107;-31
2021/03/30 08:53:20;;;;;;;12.88;11.77;;;;;;;34.83;46.81;100264.66;5064529;27;70029;-31
2021/03/30 08:55:52;;;;;;;13.80;12.70;;;;;;;34.84;46.69;100260.84;5075383;27;65888;-30
2021/03/30 08:58:26;;;;;;;13.40;12.50;;;;;;;34.86;46.90;100254.03;5075955;27;69954;-33
2021/03/30 09:00:57;;;;;;;13.10;12.10;;;;;;;34.79;46.85;100247.19;5076566;27;65433;-30
2021/03/30 09:03:29;;;;;;;13.02;11.90;;;;;;;34.81;46.86;100255.91;5073556;28;68689;-30
2021/03/30 09:05:58;;;;;;;14.15;12.73;;;;;;;34.82;46.70;100247.47;5075597;27;66239;-31
2021/03/30 09:08:42;;;;;;;14.50;13.20;;;;;;;34.80;46.71;100244.19;5075381;27;69986;-32
2021/03/30 09:11:27;;;;;;;13.18;12.15;;;;;;;34.82;46.66;100241.19;5073646;27;66244;-31
2021/03/30 09:14:03;;;;;;;14.90;13.05;;;;;;;34.88;46.64;100245.59;5072019;28;70140;-31
2021/03/30 09:16:37;;;;;;;13.95;12.82;;;;;;;34.90;46.65;100243.44;5066924;27;66197;-31
2021/03/30 09:19:30;;;;;;;13.70;12.43;;;;;;;34.89;46.69;100241.81;5074827;27;69245;-30
2021/03/30 09:22:05;;;;;;;13.35;12.38;;;;;;;34.91;46.60;100243.19;5066029;27;65096;-31
2021/03/30 09:24:43;;;;;;;16.98;12.15;;;;;;;34.89;46.84;100236.34;5061372;27;70544;-31
2021/03/30 09:27:27;;;;;;;13.70;12.38;;;;;;;34.91;46.93;100243.19;5060470;27;66353;-30
2021/03/30 09:30:00;;;;;;;14.98;13.57;;;;;;;34.97;46.79;100243.22;5061425;27;69510;-31
2021/03/30 09:32:32;;;;;;;18.48;12.18;;;;;;;34.95;47.23;100238.03;5064430;28;64797;-31
2021/03/30 09:35:07;;;;;;;13.20;12.20;;;;;;;34.94;46.60;100244.56;5070459;27;70489;-32
2021/03/30 09:37:49;;;;;;;13.30;12.30;;;;;;;34.88;47.01;100234.69;5071561;27;65114;-32
2021/03/30 09:40:41;;;;;;;13.60;12.50;;;;;;;34.95;46.93;100251.66;5056501;27;69227;-31
2021/03/30 09:43:14;;;;;;;13.70;12.63;;;;;;;35.02;46.68;100249.53;5056445;27;66081;-30
2021/03/30 09:45:45;;;;;;;14.50;13.18;;;;;;;34.99;47.13;100244.56;5063523;27;69344;-30
2021/03/30 09:48:17;;;;;;;13.75;11.82;;;;;;;35.00;46.78;100248.97;5063351;27;65796;-30
2021/03/30 09:50:50;;;;;;;13.52;12.35;;;;;;;35.04;46.99;100260.97;5067549;27;69244;-31
2021/03/30 09:53:40;;;;;;;19.42;12.85;;;;;;;34.98;47.10;100253.84;5071749;27;65428;-30
2021/03/30 09:56:22;;;;;;;14.18;12.75;;;;;;;35.00;47.09;100254.41;5071357;27;69823;-31
2021/03/30 09:58:59;;;;;;;14.48;12.38;;;;;;;34.99;47.12;100252.75;5063656;28;65994;-31
2021/03/30 10:01:29;;;;;;;16.77;12.13;;;;;;;34.99;47.00;100252.75;5070688;27;69426;-30
2021/03/30 10:04:04;;;;;;;14.02;12.88;;;;;;;34.99;47.24;100258.19;5062998;27;65918;-31
2021/03/30 10:06:33;;;;;;;13.60;12.43;;;;;;;34.98;47.20;100251.13;5066937;27;70402;-31
2021/03/30 10:09:05;;;;;;;13.50;12.32;;;;;;;34.99;47.42;100246.47;5054947;27;67234;-31
2021/03/30 10:11:35;;;;;;;13.77;12.20;;;;;;;34.97;47.27;100254.94;5065289;28;69666;-32
2021/03/30 10:14:25;;;;;;;17.17;11.88;;;;;;;34.91;48.01;100251.34;5059673;27;66010;-29
2021/03/30 10:16:58;;;;;;;18.17;13.07;;;;;;;34.93;48.79;100264.72;5057664;28;68928;-30
2021/03/30 10:19:27;;;;;;;20.02;12.82;;;;;;;34.95;48.89;100262.53;5062101;27;65385;-31
2021/03/30 10:21:57;;;;;;;16.23;12.65;;;;;;;34.89;49.19;100263.59;5059078;28;70023;-30
2021/03/30 10:24:26;;;;;;;13.30;11.98;;;;;;;34.83;49.43;100278.28;5062654;27;66180;-31
2021/03/30 10:27:08;;;;;;;13.65;12.25;;;;;;;34.63;49.70;100260.69;5061167;28;70690;-33
2021/03/30 10:29:40;;;;;;;;;;;;;;;34.70;50.37;100285.81;5060953;27;66007;-33
2021/03/30 10:32:18;;;;;;;25.97;12.77;;;;;;;34.76;49.54;100291.28;5062475;27;69616;-30
2021/03/30 10:34:48;;;;;;;14.23;11.57;;;;;;;34.76;49.89;100291.28;5057235;27;66393;-30
2021/03/30 10:37:19;;;;;;;13.00;11.75;;;;;;;34.69;50.06;100289.63;5061258;28;69873;-34
2021/03/30 10:39:48;;;;;;;14.27;11.35;;;;;;;34.67;50.18;100291.78;5062375;27;66385;-29
2021/03/30 10:42:19;;;;;;;13.70;11.32;;;;;;;34.62;50.33;100299.91;5076777;27;69766;-30
2021/03/30 10:44:56;;;;;;;13.57;11.15;;;;;;;34.57;50.73;100309.94;5057399;28;66286;-30
2021/03/30 10:47:33;;;;;;;12.35;11.02;;;;;;;34.41;51.33;100298.88;5059733;28;70742;-31
2021/03/30 10:50:15;;;;;;;13.43;10.65;;;;;;;34.40;51.39;100310.84;5060312;27;65389;-32
2021/03/30 10:52:45;;;;;;;11.10;10.27;;;;;;;34.38;50.67;100295.84;5060465;27;68830;-31
2021/03/30 10:55:17;;;;;;;10.57;9.85;;;;;;;34.48;50.83;100307.66;5062696;27;64642;-32
2021/03/30 10:57:51;;;;;;;10.85;9.60;;;;;;;34.46;50.92;100308.97;5058387;28;70309;-33
2021/03/30 11:00:21;;;;;;;15.27;11.35;;;;;;;34.37;51.09;100288.75;5054384;28;66388;-31
2021/03/30 11:02:50;;;;;;;14.27;11.60;;;;;;;34.39;51.66;100286.59;5058656;27;69233;-30
2021/03/30 11:05:19;;;;;;;14.80;11.05;;;;;;;34.47;51.44;100299.75;5059305;27;65370;-32
2021/03/30 11:07:57;;;;;;;24.75;12.63;;;;;;;34.50;51.82;100304.69;5060037;27;68078;-32
2021/03/30 11:10:27;;;;;;;13.32;11.93;;;;;;;34.46;51.90;100298.94;5063898;27;65531;-32
2021/03/30 11:12:57;;;;;;;18.13;12.13;;;;;;;34.48;52.02;100306.84;5060053;27;71357;-32
2021/03/30 11:15:27;;;;;;;18.02;12.32;;;;;;;34.45;51.95;100307.34;5062889;27;65331;-30
2021/03/30 11:17:56;;;;;;;16.13;12.05;;;;;;;34.39;52.27;100292.88;5066754;28;69963;-33
2021/03/30 11:20:26;;;;;;;17.77;12.93;;;;;;;34.39;52.50;100297.50;5063928;27;65815;-32
2021/03/30 11:22:58;;;;;;;18.00;12.18;;;;;;;34.38;52.39;100296.69;5066772;27;69948;-31
2021/03/30 11:25:27;;;;;;;17.05;12.68;;;;;;;34.34;52.63;100300.16;5069236;27;65996;-32
2021/03/30 11:28:03;;;;;;;16.80;11.65;;;;;;;34.35;52.38;100302.66;5047647;28;69100;-31
2021/03/30 11:30:47;;;;;;;14.27;12.48;;;;;;;34.30;52.72;100307.19;5068808;28;66416;-32
2021/03/30 11:33:22;;;;;;;18.73;13.57;;;;;;;34.26;53.09;100304.97;5063089;27;70055;-32
2021/03/30 11:35:55;;;;;;;21.77;12.95;;;;;;;34.21;53.19;100310.41;5068716;27;65012;-31
2021/03/30 11:38:24;;;;;;;12.07;11.05;;;;;;;34.06;51.51;100307.50;5063253;27;69089;-30
2021/03/30 11:40:54;;;;;;;19.77;11.88;;;;;;;33.77;50.74;100298.72;5073698;27;65692;-32
2021/03/30 11:43:23;;;;;;;13.75;11.88;;;;;;;33.76;50.43;100316.91;5070474;27;69007;-29
2021/03/30 11:45:54;;;;;;;15.13;11.68;;;;;;;33.65;49.49;100315.16;5056122;27;67218;-31
2021/03/30 11:48:26;;;;;;;11.73;10.57;;;;;;;33.59;48.98;100322.44;5068995;27;69685;-32
2021/03/30 11:50:55;;;;;;;14.05;10.93;;;;;;;33.55;48.61;100332.19;5068362;27;65219;-32